Time;durP1;ratioP1;P1;durP2;ratioP2;P2;SDS_P1;SDS_P2;PMS_P1;PMS_P2;Temp;Humidity;BMP_temperature;BMP_pressure;BME280_temperature;BME280_humidity;BME280_pressure;Samples;Min_cycle;Max_cycle;Signal;HPM_P1;HPM_P2
2023/03/09 00:01:35;;;;;;;0.97;0.97;;;;;9.10;93648.00;;;;5037263;28;20188;-59
2023/03/09 00:04:04;;;;;;;2.50;1.43;;;;;9.20;93667.00;;;;5036592;28;20200;-59
2023/03/09 00:06:31;;;;;;;0.80;0.80;;;9.70;99.90;9.00;93674.00;;;;5036702;28;20216;-59
2023/03/09 00:08:59;;;;;;;0.87;0.87;;;;;9.00;93677.00;;;;5036501;28;20193;-59
2023/03/09 00:11:26;;;;;;;0.60;0.60;;;9.70;99.90;9.20;93675.00;;;;5036621;28;20252;-59
2023/03/09 00:13:53;;;;;;;0.53;0.53;;;9.80;99.90;9.30;93666.00;;;;5035384;28;20203;-59
2023/03/09 00:16:23;;;;;;;0.80;0.80;;;;;9.40;93683.00;;;;5036179;28;20238;-59
2023/03/09 00:18:51;;;;;;;0.93;0.93;;;10.10;94.10;9.50;93680.00;;;;5036275;28;20193;-59
2023/03/09 00:21:36;;;;;;;0.53;0.53;;;;;9.50;93692.00;;;;5036188;28;20283;-59
2023/03/09 00:24:04;;;;;;;0.50;0.50;;;;;9.30;93692.00;;;;5036206;28;20181;-58
2023/03/09 00:26:31;;;;;;;0.60;0.60;;;;;9.40;93698.00;;;;5018140;28;20692;-58
2023/03/09 00:28:59;;;;;;;0.50;0.50;;;;;9.40;93715.00;;;;5036047;28;20683;-59
2023/03/09 00:31:27;;;;;;;0.60;0.60;;;;;9.40;93728.00;;;;5036367;28;20193;-59
2023/03/09 00:33:54;;;;;;;0.70;0.70;;;;;9.20;93756.00;;;;5036630;28;20197;-59
2023/03/09 00:36:23;;;;;;;0.50;0.50;;;;;9.10;93750.00;;;;5035884;28;20220;-59
2023/03/09 00:38:54;;;;;;;0.50;0.50;;;9.70;95.10;8.90;93749.00;;;;5035969;28;20197;-60
2023/03/09 00:41:22;;;;;;;0.50;0.50;;;;;8.80;93735.00;;;;5035752;28;20197;-58
2023/03/09 00:43:50;;;;;;;0.50;0.50;;;;;8.80;93724.00;;;;5035733;28;20251;-58
2023/03/09 00:46:17;;;;;;;0.50;0.50;;;9.50;97.30;8.70;93753.00;;;;5035659;28;20217;-58
2023/03/09 00:48:45;;;;;;;0.50;0.50;;;;;8.60;93775.00;;;;5016875;28;20204;-59
2023/03/09 00:51:13;;;;;;;0.40;0.40;;;;;8.60;93731.00;;;;5035760;28;20239;-60
2023/03/09 00:53:42;;;;;;;0.60;0.60;;;;;8.50;93753.00;;;;5035750;28;20552;-58
2023/03/09 00:56:13;;;;;;;0.63;0.63;;;;;8.50;93796.00;;;;5017824;28;20294;-58
2023/03/09 00:58:41;;;;;;;0.50;0.50;;;;;8.40;93812.00;;;;5036218;28;20228;-59
2023/03/09 01:01:09;;;;;;;0.60;0.60;;;;;8.10;93788.00;;;;5035524;28;20197;-59
2023/03/09 01:03:36;;;;;;;0.50;0.50;;;;;8.00;93791.00;;;;5035772;28;20652;-59
2023/03/09 01:06:05;;;;;;;0.60;0.60;;;;;8.00;93750.00;;;;5035353;28;20212;-59
2023/03/09 01:08:33;;;;;;;0.70;0.70;;;;;7.90;93731.00;;;;5035451;28;20676;-59
2023/03/09 01:11:05;;;;;;;0.50;0.50;;;;;7.90;93757.00;;;;5017753;28;20206;-57
2023/03/09 01:13:32;;;;;;;0.70;0.70;;;;;8.00;93719.00;;;;5035604;28;20521;-58
2023/03/09 01:16:00;;;;;;;0.60;0.60;;;;;7.90;93732.00;;;;5035640;28;20274;-58
2023/03/09 01:18:27;;;;;;;1.10;0.80;;;;;8.00;93711.00;;;;5035454;28;20200;-57
2023/03/09 01:20:55;;;;;;;0.60;0.60;;;;;8.10;93756.00;;;;5035615;28;20193;-58
2023/03/09 01:23:22;;;;;;;0.50;0.50;;;;;8.20;93799.00;;;;5035304;28;20193;-59
2023/03/09 01:25:49;;;;;;;0.53;0.53;;;;;8.10;93762.00;;;;5035042;28;20213;-59
2023/03/09 01:28:18;;;;;;;0.50;0.50;;;8.90;96.90;8.20;93760.00;;;;5035089;28;20208;-58
2023/03/09 01:30:45;;;;;;;1.13;1.03;;;;;8.10;93749.00;;;;5035335;28;20199;-58
2023/03/09 01:33:13;;;;;;;0.50;0.50;;;;;8.10;93750.00;;;;5035039;28;20228;-60
2023/03/09 01:35:40;;;;;;;0.60;0.60;;;;;8.10;93737.00;;;;5034808;28;20224;-57
2023/03/09 01:38:09;;;;;;;0.60;0.60;;;;;8.10;93733.00;;;;5034910;28;20204;-59
2023/03/09 01:40:36;;;;;;;0.60;0.60;;;;;8.10;93729.00;;;;5017032;28;20224;-59
2023/03/09 01:43:27;;;;;;;0.53;0.53;;;;;8.20;93745.00;;;;5016988;28;20208;-58
2023/03/09 01:46:40;;;;;;;0.50;0.50;;;;;8.20;93772.00;;;;5034651;28;20204;-58
2023/03/09 01:49:14;;;;;;;0.50;0.50;;;;;8.00;93780.00;;;;5034674;28;20199;-58
2023/03/09 01:51:48;;;;;;;0.70;0.70;;;;;7.80;93770.00;;;;5035077;28;20188;-59
2023/03/09 01:54:20;;;;;;;0.60;0.60;;;;;7.50;93752.00;;;;5034928;28;20590;-58
2023/03/09 01:56:52;;;;;;;0.50;0.50;;;;;7.60;93744.00;;;;5035252;28;20217;-58
2023/03/09 01:59:25;;;;;;;0.70;0.70;;;;;7.60;93723.00;;;;5034779;28;20592;-58
2023/03/09 02:01:53;;;;;;;0.50;0.50;;;;;7.60;93701.00;;;;5033996;28;20181;-59
2023/03/09 02:04:27;;;;;;;0.50;0.50;;;;;7.60;93692.00;;;;5034398;28;20279;-60
2023/03/09 02:06:55;;;;;;;0.50;0.50;;;;;7.70;93743.00;;;;5016369;28;20297;-60
2023/03/09 02:09:30;;;;;;;0.60;0.60;;;8.50;99.90;7.70;93714.00;;;;5034262;28;20196;-59
2023/03/09 02:11:59;;;;;;;0.50;0.50;;;8.50;94.00;7.80;93682.00;;;;5032952;28;20188;-59
2023/03/09 02:14:29;;;;;;;0.50;0.50;;;;;7.80;93704.00;;;;5034228;28;20196;-57
2023/03/09 02:16:56;;;;;;;0.53;0.53;;;;;7.80;93691.00;;;;5034116;28;20225;-58
2023/03/09 02:20:07;;;;;;;0.60;0.60;;;;;7.70;93685.00;;;;5034269;28;20196;-58
2023/03/09 02:22:36;;;;;;;0.80;0.80;;;;;7.80;93711.00;;;;4997188;28;20216;-58
2023/03/09 02:25:13;;;;;;;0.60;0.60;;;;;7.80;93696.00;;;;5034113;28;20243;-58
2023/03/09 02:27:42;;;;;;;0.60;0.60;;;;;7.80;93676.00;;;;5034053;28;20226;-57
2023/03/09 02:30:11;;;;;;;0.60;0.60;;;;;7.90;93682.00;;;;5034016;28;20197;-58
2023/03/09 02:32:38;;;;;;;0.50;0.50;;;;;7.90;93685.00;;;;5033688;28;20667;-59
2023/03/09 02:35:09;;;;;;;0.50;0.50;;;;;8.00;93665.00;;;;5034156;28;20250;-59
2023/03/09 02:37:38;;;;;;;0.50;0.50;;;;;8.00;93684.00;;;;5033683;28;20236;-59
2023/03/09 02:40:12;;;;;;;0.60;0.60;;;;;8.00;93698.00;;;;5015846;28;20215;-58
2023/03/09 02:42:42;;;;;;;0.60;0.60;;;;;8.10;93724.00;;;;5015691;28;20642;-58
2023/03/09 02:45:11;;;;;;;0.60;0.60;;;;;8.10;93775.00;;;;5033958;28;20201;-58
2023/03/09 02:47:39;;;;;;;0.50;0.50;;;;;8.10;93762.00;;;;5033745;28;20204;-58
2023/03/09 02:50:09;;;;;;;0.60;0.60;;;;;8.00;93727.00;;;;5033415;28;20195;-58
2023/03/09 02:52:37;;;;;;;0.57;0.57;;;;;8.00;93732.00;;;;5033718;28;20660;-58
2023/03/09 02:55:05;;;;;;;0.57;0.57;;;;;8.00;93741.00;;;;5033723;28;20200;-58
2023/03/09 02:57:32;;;;;;;0.50;0.50;;;;;8.00;93711.00;;;;5033544;28;20251;-58
2023/03/09 03:00:01;;;;;;;0.60;0.60;;;;;7.90;93763.00;;;;5033534;28;20610;-59
2023/03/09 03:02:28;;;;;;;0.60;0.60;;;;;8.00;93771.00;;;;5033323;28;20196;-58
2023/03/09 03:04:56;;;;;;;0.50;0.50;;;;;7.90;93780.00;;;;5033423;28;20561;-58
2023/03/09 03:07:23;;;;;;;0.50;0.50;;;;;8.00;93814.00;;;;5033154;28;20283;-58
2023/03/09 03:09:51;;;;;;;0.60;0.60;;;;;7.90;93827.00;;;;5033594;28;20196;-58
2023/03/09 03:12:18;;;;;;;0.50;0.50;;;;;7.90;93846.00;;;;5032405;28;20541;-58
2023/03/09 03:14:45;;;;;;;0.60;0.60;;;8.60;99.90;7.90;93870.00;;;;5033369;28;20283;-58
2023/03/09 03:17:14;;;;;;;2.43;1.27;;;;;7.70;93863.00;;;;5032980;28;20229;-58
2023/03/09 03:19:42;;;;;;;0.67;0.67;;;;;7.70;93859.00;;;;5033699;28;20200;-58
2023/03/09 03:22:09;;;;;;;0.60;0.60;;;;;7.60;93901.00;;;;5015272;28;20686;-58
2023/03/09 03:24:37;;;;;;;0.60;0.60;;;;;7.60;93890.00;;;;5033078;28;20243;-58
2023/03/09 03:27:06;;;;;;;0.60;0.60;;;;;7.40;93876.00;;;;5032783;28;20259;-58
2023/03/09 03:29:34;;;;;;;0.50;0.50;;;;;7.30;93871.00;;;;5033063;28;20196;-58
2023/03/09 03:32:01;;;;;;;0.50;0.50;;;;;7.20;93865.00;;;;5032860;28;20203;-58
2023/03/09 03:34:30;;;;;;;0.50;0.50;;;;;7.20;93883.00;;;;5033106;28;20206;-58
2023/03/09 03:36:58;;;;;;;0.53;0.53;;;;;7.10;93899.00;;;;5032713;28;20231;-58
2023/03/09 03:39:25;;;;;;;0.60;0.60;;;;;7.30;93926.00;;;;5033024;28;20551;-58
2023/03/09 03:41:53;;;;;;;0.57;0.57;;;;;7.20;93959.00;;;;5032824;28;20192;-58
2023/03/09 03:44:20;;;;;;;0.60;0.60;;;;;7.10;93911.00;;;;5033035;28;20200;-58
2023/03/09 03:46:47;;;;;;;0.60;0.60;;;;;7.10;93920.00;;;;5032702;28;20204;-58
2023/03/09 03:49:15;;;;;;;0.50;0.50;;;;;7.10;93935.00;;;;5033024;28;20204;-58
2023/03/09 03:51:44;;;;;;;2.20;1.07;;;;;7.10;93950.00;;;;5032668;28;20219;-58
2023/03/09 03:54:11;;;;;;;0.60;0.60;;;;;7.10;93966.00;;;;5032958;28;20204;-58
2023/03/09 03:56:38;;;;;;;0.60;0.60;;;;;7.10;93936.00;;;;5032505;28;20223;-58
2023/03/09 03:59:05;;;;;;;0.50;0.50;;;7.90;99.90;7.20;93951.00;;;;5032649;28;20188;-58
2023/03/09 04:01:33;;;;;;;0.77;0.77;;;;;7.20;93906.00;;;;5033119;28;20185;-58
2023/03/09 04:04:00;;;;;;;0.70;0.70;;;;;7.20;93940.00;;;;5032607;28;20193;-58
2023/03/09 04:06:28;;;;;;;0.90;0.90;;;;;7.20;93915.00;;;;5032504;28;20225;-58
2023/03/09 04:08:56;;;;;;;0.60;0.60;;;;;7.30;93960.00;;;;5060462;22;20238;-65
2023/03/09 04:11:24;;;;;;;1.30;1.20;;;;;7.30;93973.00;;;;5052501;28;20199;-65
2023/03/09 04:13:52;;;;;;;0.50;0.50;;;;;7.30;93990.00;;;;5052934;28;20200;-66
2023/03/09 04:16:19;;;;;;;0.50;0.50;;;;;7.30;93987.00;;;;5052870;28;20694;-65
2023/03/09 04:18:47;;;;;;;0.70;0.70;;;;;7.30;93986.00;;;;5052595;28;20216;-64
2023/03/09 04:21:15;;;;;;;1.00;1.00;;;;;7.40;93989.00;;;;5052402;28;20293;-65
2023/03/09 04:23:42;;;;;;;0.60;0.60;;;;;7.30;93986.00;;;;5054106;28;20285;-65
2023/03/09 04:26:12;;;;;;;0.50;0.50;;;;;7.30;93984.00;;;;5056433;28;20191;-65
2023/03/09 04:28:40;;;;;;;0.60;0.60;;;;;7.30;93991.00;;;;5056281;28;20215;-65
2023/03/09 04:31:07;;;;;;;0.60;0.60;;;;;7.30;94005.00;;;;5055939;28;20203;-65
2023/03/09 04:33:35;;;;;;;0.70;0.70;;;;;7.20;94033.00;;;;5056216;28;20203;-65
2023/03/09 04:36:03;;;;;;;0.60;0.60;;;;;7.20;94017.00;;;;5055703;28;20269;-65
2023/03/09 04:38:31;;;;;;;0.60;0.60;;;;;7.20;94021.00;;;;5055784;28;20212;-64
2023/03/09 04:40:58;;;;;;;0.60;0.60;;;;;7.20;94017.00;;;;5056162;28;20204;-65
2023/03/09 04:43:27;;;;;;;0.50;0.50;;;;;7.30;94033.00;;;;5056351;28;20199;-65
2023/03/09 04:45:55;;;;;;;0.60;0.60;;;;;7.30;94031.00;;;;5056054;28;20199;-65
2023/03/09 04:48:22;;;;;;;1.63;1.53;;;;;7.20;94027.00;;;;5055730;28;20215;-65
2023/03/09 04:50:49;;;;;;;0.60;0.60;;;;;7.20;94040.00;;;;5037972;28;20224;-66
2023/03/09 04:53:17;;;;;;;0.60;0.60;;;;;7.30;94034.00;;;;5055680;28;20200;-65
2023/03/09 04:55:44;;;;;;;0.70;0.70;;;;;7.40;94056.00;;;;5037628;28;20211;-66
2023/03/09 04:58:12;;;;;;;1.23;1.23;;;;;7.40;94051.00;;;;5055734;28;20215;-65
2023/03/09 05:00:40;;;;;;;0.60;0.60;;;;;7.40;94053.00;;;;5055354;28;20709;-65
2023/03/09 05:03:08;;;;;;;2.10;1.90;;;;;7.40;94053.00;;;;5055731;28;20225;-66
2023/03/09 05:05:35;;;;;;;1.33;1.23;;;;;7.40;94072.00;;;;5055452;28;20581;-65
2023/03/09 05:08:03;;;;;;;0.93;0.93;;;;;7.50;94070.00;;;;5055135;28;20231;-66
2023/03/09 05:10:30;;;;;;;0.80;0.80;;;;;7.40;94059.00;;;;5055779;28;20203;-66
2023/03/09 05:12:58;;;;;;;0.87;0.87;;;;;7.40;94070.00;;;;5055719;28;20203;-66
2023/03/09 05:15:25;;;;;;;0.70;0.70;;;;;7.40;94081.00;;;;5055467;28;20192;-66
2023/03/09 05:17:54;;;;;;;0.50;0.50;;;;;7.60;94071.00;;;;5054957;28;20354;-66
2023/03/09 05:20:23;;;;;;;1.50;1.40;;;;;7.60;94076.00;;;;5055099;28;20204;-68
2023/03/09 05:22:50;;;;;;;0.70;0.70;;;;;7.50;94083.00;;;;5055651;28;20188;-66
2023/03/09 05:25:18;;;;;;;0.70;0.70;;;;;7.50;94085.00;;;;5055313;28;20597;-67
2023/03/09 05:27:45;;;;;;;0.60;0.60;;;;;7.50;94092.00;;;;5054872;28;20766;-66
2023/03/09 05:30:13;;;;;;;1.37;1.27;;;;;7.60;94104.00;;;;5037163;28;20192;-66
2023/03/09 05:32:40;;;;;;;0.60;0.60;;;;;7.70;94114.00;;;;5055318;28;20203;-66
2023/03/09 05:35:09;;;;;;;0.57;0.57;;;;;7.70;94109.00;;;;5054533;28;20195;-66
2023/03/09 05:37:37;;;;;;;0.60;0.60;;;;;7.80;94105.00;;;;5054616;28;20285;-66
2023/03/09 05:40:05;;;;;;;1.50;1.40;;;;;7.70;94124.00;;;;5055349;28;20761;-66
2023/03/09 05:42:33;;;;;;;0.60;0.60;;;;;7.80;94135.00;;;;5054835;28;20195;-66
2023/03/09 05:45:02;;;;;;;0.90;0.90;;;;;7.80;94135.00;;;;5054849;28;20535;-66
2023/03/09 05:47:29;;;;;;;0.60;0.60;;;;;7.80;94140.00;;;;5054849;28;20246;-66
2023/03/09 05:49:57;;;;;;;0.63;0.63;;;;;7.80;94133.00;;;;5054505;28;20202;-65
2023/03/09 05:52:26;;;;;;;14.57;1.17;;;;;7.80;94141.00;;;;5036730;28;20218;-66
2023/03/09 05:54:53;;;;;;;0.60;0.60;;;;;7.60;94141.00;;;;5054594;28;20238;-66
2023/03/09 05:57:21;;;;;;;1.10;1.00;;;;;7.70;94157.00;;;;5054796;28;20216;-65
2023/03/09 05:59:49;;;;;;;0.60;0.60;;;;;7.60;94149.00;;;;5054617;28;20207;-65
2023/03/09 06:02:16;;;;;;;0.70;0.70;;;;;7.50;94158.00;;;;5054292;28;20223;-66
2023/03/09 06:04:44;;;;;;;0.50;0.50;;;;;7.50;94161.00;;;;5054798;28;20196;-66
2023/03/09 06:07:11;;;;;;;0.60;0.60;;;;;7.40;94177.00;;;;5054642;28;20188;-66
2023/03/09 06:09:40;;;;;;;0.50;0.50;;;;;7.60;94187.00;;;;5054010;28;20587;-66
2023/03/09 06:12:08;;;;;;;0.40;0.40;;;;;7.80;94193.00;;;;5054132;28;20290;-66
2023/03/09 06:14:35;;;;;;;0.90;0.90;;;;;8.00;94192.00;;;;5054314;28;20192;-66
2023/03/09 06:17:04;;;;;;;0.60;0.60;;;;;8.10;94198.00;;;;5054060;28;20729;-66
2023/03/09 06:19:31;;;;;;;3.50;0.90;;;;;8.00;94211.00;;;;5054071;28;20234;-66
2023/03/09 06:21:58;;;;;;;0.90;0.90;;;;;7.90;94205.00;;;;5053850;28;20701;-66
2023/03/09 06:24:26;;;;;;;1.33;1.23;;;;;7.90;94212.00;;;;5054001;28;20189;-66
2023/03/09 06:26:58;;;;;;;1.17;1.00;;;;;8.00;94218.00;;;;5053984;28;20184;-66
2023/03/09 06:29:25;;;;;;;0.57;0.57;;;;;8.00;94218.00;;;;5053734;28;20215;-66
2023/03/09 06:31:53;;;;;;;2.10;0.90;;;;;7.90;94219.00;;;;5054656;28;20218;-66
2023/03/09 06:34:21;;;;;;;0.90;0.90;;;;;8.00;94225.00;;;;5053917;28;20198;-66
2023/03/09 06:36:48;;;;;;;0.53;0.53;;;;;8.10;94216.00;;;;5053775;28;20224;-66
2023/03/09 06:39:16;;;;;;;1.70;1.13;;;;;8.00;94232.00;;;;5053575;28;20212;-66
2023/03/09 06:41:43;;;;;;;0.60;0.60;;;;;8.00;94254.00;;;;5054081;28;20211;-66
2023/03/09 06:44:12;;;;;;;0.77;0.77;;;;;8.00;94255.00;;;;5053636;28;20200;-67
2023/03/09 06:46:40;;;;;;;2.33;1.87;;;;;8.00;94244.00;;;;5053511;28;20191;-67
2023/03/09 06:49:07;;;;;;;0.80;0.80;;;;;8.00;94254.00;;;;5053697;28;20212;-68
2023/03/09 06:51:34;;;;;;;0.80;0.80;;;;;7.90;94257.00;;;;5053591;28;20203;-65
2023/03/09 06:54:02;;;;;;;2.10;1.47;;;;;7.90;94269.00;;;;5053369;28;20188;-65
2023/03/09 06:56:29;;;;;;;0.73;0.73;;;;;7.90;94266.00;;;;5053486;28;20568;-65
2023/03/09 06:58:57;;;;;;;0.50;0.50;;;;;7.90;94260.00;;;;5053359;28;20212;-65
2023/03/09 07:01:26;;;;;;;0.60;0.60;;;;;8.10;94266.00;;;;5053555;28;20206;-65
2023/03/09 07:03:53;;;;;;;0.90;0.90;;;;;8.10;94265.00;;;;5035419;28;20198;-65
2023/03/09 07:06:20;;;;;;;0.50;0.50;;;;;8.10;94260.00;;;;5053537;28;20200;-66
2023/03/09 07:08:48;;;;;;;0.70;0.70;;;;;8.00;94258.00;;;;5053134;28;20224;-66
2023/03/09 07:11:15;;;;;;;0.73;0.73;;;;;8.00;94269.00;;;;5035158;28;20196;-67
2023/03/09 07:13:43;;;;;;;0.60;0.60;;;;;8.40;94266.00;;;;5053362;28;20192;-67
2023/03/09 07:16:10;;;;;;;0.60;0.60;;;;;8.30;94289.00;;;;5053077;28;20203;-67
2023/03/09 07:18:39;;;;;;;0.40;0.40;;;;;8.20;94304.00;;;;5051471;28;20462;-73
2023/03/09 07:21:07;;;;;;;0.63;0.63;;;;;8.20;94285.00;;;;5048925;28;20211;-71
2023/03/09 07:23:34;;;;;;;0.70;0.70;;;;;8.20;94307.00;;;;5049340;28;20196;-71
2023/03/09 07:26:02;;;;;;;0.50;0.50;;;;;8.20;94294.00;;;;5049722;28;20212;-71
2023/03/09 07:28:30;;;;;;;0.63;0.63;;;;;8.20;94321.00;;;;5049246;28;20333;-67
2023/03/09 07:30:58;;;;;;;0.60;0.60;;;;;8.20;94313.00;;;;5051387;28;20564;-67
2023/03/09 07:33:26;;;;;;;0.73;0.73;;;;;8.40;94313.00;;;;5050946;28;20211;-67
2023/03/09 07:35:55;;;;;;;0.53;0.53;;;;;8.60;94329.00;;;;5050475;28;20199;-67
2023/03/09 07:38:22;;;;;;;0.57;0.57;;;;;8.70;94338.00;;;;5051094;28;20220;-68
2023/03/09 07:40:50;;;;;;;0.60;0.60;;;;;8.80;94358.00;;;;5051476;28;20196;-66
2023/03/09 07:43:17;;;;;;;1.30;0.97;;;;;9.00;94348.00;;;;5051270;28;20212;-67
2023/03/09 07:45:45;;;;;;;0.83;0.83;;;;;8.80;94358.00;;;;5051248;28;20196;-68
2023/03/09 07:48:12;;;;;;;0.80;0.80;;;;;9.10;94351.00;;;;5047117;28;20215;-67
2023/03/09 07:50:40;;;;;;;0.73;0.73;;;;;8.80;94366.00;;;;5046223;28;20210;-65
2023/03/09 07:53:09;;;;;;;0.80;0.80;;;;;8.90;94369.00;;;;5048003;28;20550;-67
2023/03/09 07:55:36;;;;;;;2.07;1.87;;;;;8.80;94375.00;;;;5046230;28;20238;-67
2023/03/09 07:58:05;;;;;;;0.70;0.70;;;;;8.70;94393.00;;;;5050903;28;20713;-67
2023/03/09 08:00:32;;;;;;;0.50;0.50;;;;;8.80;94382.00;;;;5053867;28;20196;-67
2023/03/09 08:03:00;;;;;;;0.50;0.50;;;;;8.80;94387.00;;;;5054633;28;20199;-66
2023/03/09 08:05:28;;;;;;;0.70;0.70;;;;;8.80;94397.00;;;;5054591;28;20277;-66
2023/03/09 08:07:56;;;;;;;0.60;0.60;;;;;8.70;94418.00;;;;5054433;28;20721;-67
2023/03/09 08:10:24;;;;;;;0.50;0.50;;;;;8.70;94411.00;;;;5054780;28;20196;-67
2023/03/09 08:12:52;;;;;;;0.57;0.57;;;;;8.70;94418.00;;;;5055076;28;20200;-67
2023/03/09 08:15:22;;;;;;;1.90;1.27;;;;;8.60;94415.00;;;;5054600;28;20210;-68
2023/03/09 08:17:49;;;;;;;0.50;0.50;;;;;8.50;94427.00;;;;5052910;28;20220;-66
2023/03/09 08:20:17;;;;;;;0.63;0.63;;;;;8.30;94425.00;;;;5054424;28;20198;-66
2023/03/09 08:22:45;;;;;;;1.10;1.10;;;;;8.30;94455.00;;;;5054705;28;20192;-65
2023/03/09 08:25:12;;;;;;;0.50;0.50;;;;;8.20;94436.00;;;;5054260;28;20250;-66
2023/03/09 08:27:43;;;;;;;0.97;0.97;;;;;8.30;94438.00;;;;5054358;28;20483;-66
2023/03/09 08:30:12;;;;;;;0.50;0.50;;;;;8.30;94445.00;;;;5054690;28;20188;-66
2023/03/09 08:32:40;;;;;;;0.77;0.77;;;;;8.50;94446.00;;;;5053871;28;20242;-66
2023/03/09 08:35:08;;;;;;;0.70;0.70;;;;;8.40;94446.00;;;;5054576;28;20203;-66
2023/03/09 08:37:35;;;;;;;0.60;0.60;;;;;8.50;94459.00;;;;5053614;28;20224;-67
2023/03/09 08:40:03;;;;;;;0.50;0.50;;;;;8.30;94457.00;;;;5036475;28;20196;-66
2023/03/09 08:42:32;;;;;;;0.60;0.60;;;;;8.30;94468.00;;;;5053551;28;20207;-67
2023/03/09 08:45:00;;;;;;;0.60;0.60;;;;;8.20;94480.00;;;;5054255;28;20207;-67
2023/03/09 08:47:28;;;;;;;0.57;0.57;;;;;8.10;94474.00;;;;5053829;28;20224;-67
2023/03/09 08:49:55;;;;;;;1.73;1.03;;;;;8.20;94497.00;;;;5054197;28;20203;-67
2023/03/09 08:52:23;;;;;;;0.83;0.83;;;;;8.30;94516.00;;;;5051207;28;20200;-67
2023/03/09 08:54:50;;;;;;;0.70;0.70;;;;;8.20;94517.00;;;;5053744;28;20563;-67
2023/03/09 08:57:19;;;;;;;0.50;0.50;;;;;8.20;94532.00;;;;5053461;28;20274;-67
2023/03/09 08:59:48;;;;;;;0.60;0.60;;;;;8.10;94525.00;;;;5053648;28;20204;-66
2023/03/09 09:02:17;;;;;;;0.57;0.57;;;;;8.00;94531.00;;;;5053500;28;20192;-67
2023/03/09 09:04:45;;;;;;;0.60;0.60;;;;;7.90;94541.00;;;;5053523;28;20202;-67
2023/03/09 09:07:14;;;;;;;0.70;0.70;;;8.80;95.40;8.10;94548.00;;;;5054118;28;20318;-67
2023/03/09 09:09:42;;;;;;;0.73;0.73;;;;;7.90;94531.00;;;;5051724;28;20204;-66
2023/03/09 09:12:10;;;;;;;0.60;0.60;;;8.70;96.90;8.00;94522.00;;;;5052297;28;20196;-66
2023/03/09 09:14:38;;;;;;;0.60;0.60;;;8.80;96.20;8.20;94505.00;;;;5053710;28;20192;-66
2023/03/09 09:17:08;;;;;;;0.40;0.40;;;;;8.30;94510.00;;;;5053015;28;20261;-66
2023/03/09 09:19:37;;;;;;;0.60;0.60;;;9.20;94.70;8.60;94504.00;;;;5053753;28;20266;-66
2023/03/09 09:22:05;;;;;;;0.60;0.60;;;;;8.60;94526.00;;;;5052259;28;20231;-66
2023/03/09 09:24:35;;;;;;;0.60;0.60;;;;;8.90;94528.00;;;;5034560;28;20207;-66
2023/03/09 09:27:04;;;;;;;0.87;0.80;;;9.40;91.60;8.70;94514.00;;;;5048307;28;20203;-66
2023/03/09 09:29:32;;;;;;;0.50;0.50;;;;;8.80;94517.00;;;;5049008;28;20211;-66
2023/03/09 09:31:59;;;;;;;0.50;0.50;;;9.30;92.00;8.60;94522.00;;;;5049262;28;20204;-66
2023/03/09 09:34:31;;;;;;;3.00;0.97;;;;;8.70;94529.00;;;;5052143;28;20527;-66
2023/03/09 09:37:00;;;;;;;0.60;0.60;;;9.40;92.30;9.00;94519.00;;;;5052856;28;20188;-67
2023/03/09 09:39:27;;;;;;;0.63;0.57;;;9.50;91.70;8.90;94517.00;;;;5051791;28;20218;-66
2023/03/09 09:41:57;;;;;;;0.60;0.60;;;9.50;91.10;8.90;94532.00;;;;5051701;28;20664;-67
2023/03/09 09:44:29;;;;;;;0.60;0.60;;;;;9.00;94537.00;;;;5033691;28;20204;-67
2023/03/09 09:47:01;;;;;;;0.60;0.60;;;9.60;92.30;9.20;94540.00;;;;5052158;28;20196;-67
2023/03/09 09:49:32;;;;;;;0.60;0.60;;;9.50;89.50;8.80;94533.00;;;;5052595;28;20219;-67
2023/03/09 09:52:29;;;;;;;0.53;0.53;;;9.50;89.90;9.00;94533.00;;;;5051933;28;20199;-67
2023/03/09 09:55:03;;;;;;;0.50;0.50;;;;;9.10;94541.00;;;;5049597;28;20212;-66
2023/03/09 09:57:38;;;;;;;0.60;0.60;;;;;9.10;94556.00;;;;5052385;28;20707;-66
2023/03/09 10:00:12;;;;;;;0.50;0.50;;;;;9.30;94560.00;;;;5052487;28;20203;-67
2023/03/09 10:02:57;;;;;;;0.60;0.60;;;;;8.80;94582.00;;;;5052730;28;20188;-67
2023/03/09 10:05:31;;;;;;;0.50;0.50;;;;;8.60;94597.00;;;;5052764;28;20188;-67
2023/03/09 10:08:20;;;;;;;0.70;0.70;;;9.20;96.00;8.50;94591.00;;;;5051480;28;20236;-65
2023/03/09 10:10:49;;;;;;;0.60;0.60;;;;;8.50;94605.00;;;;5048508;28;20184;-66
2023/03/09 10:13:24;;;;;;;13.33;0.97;;;;;8.60;94603.00;;;;5034170;28;20574;-67
2023/03/09 10:15:53;;;;;;;0.60;0.60;;;;;8.50;94608.00;;;;5052489;28;20194;-66
2023/03/09 10:18:32;;;;;;;23.80;1.43;;;;;8.50;94597.00;;;;5051572;28;20219;-67
2023/03/09 10:21:01;;;;;;;0.60;0.60;;;;;8.50;94589.00;;;;5051766;28;20188;-67
2023/03/09 10:23:32;;;;;;;0.67;0.67;;;;;8.50;94594.00;;;;5050659;28;20196;-67
2023/03/09 10:26:13;;;;;;;0.60;0.60;;;;;8.70;94597.00;;;;5052643;28;20195;-67
2023/03/09 10:28:45;;;;;;;0.50;0.50;;;;;8.80;94590.00;;;;5033128;28;20251;-67
2023/03/09 10:31:18;;;;;;;0.60;0.60;;;;;8.90;94589.00;;;;5051502;28;20196;-67
2023/03/09 10:33:49;;;;;;;0.63;0.63;;;;;9.30;94585.00;;;;5051087;28;20206;-67
2023/03/09 10:36:22;;;;;;;0.60;0.60;;;;;9.40;94562.00;;;;5052534;28;20195;-67
2023/03/09 10:38:54;;;;;;;0.60;0.60;;;;;9.30;94559.00;;;;5051132;28;20302;-67
2023/03/09 10:41:22;;;;;;;0.50;0.50;;;;;9.80;94564.00;;;;5051804;28;20210;-67
2023/03/09 10:43:50;;;;;;;0.50;0.50;;;;;9.60;94590.00;;;;5051680;28;20196;-67
2023/03/09 10:46:19;;;;;;;0.60;0.60;;;;;10.00;94574.00;;;;5052256;28;20200;-67
2023/03/09 10:48:48;;;;;;;0.70;0.70;;;;;9.60;94576.00;;;;5046604;28;20241;-67
2023/03/09 10:51:27;;;;;;;1.37;0.70;;;10.50;82.30;9.90;94575.00;;;;5051259;28;20250;-68
2023/03/09 10:53:57;;;;;;;1.17;1.17;;;;;10.20;94570.00;;;;5050614;28;20188;-67
2023/03/09 10:56:28;;;;;;;0.87;0.87;;;10.70;79.10;10.40;94565.00;;;;5051776;28;20562;-68
2023/03/09 10:59:15;;;;;;;0.60;0.60;;;;;10.40;94595.00;;;;5051076;28;20298;-67
2023/03/09 11:01:44;;;;;;;0.60;0.60;;;;;10.20;94594.00;;;;5051307;28;20188;-68
2023/03/09 11:04:30;;;;;;;0.50;0.50;;;;;10.80;94608.00;;;;5050700;28;20200;-67
2023/03/09 11:06:59;;;;;;;0.57;0.57;;;;;10.80;94585.00;;;;5051711;28;20195;-67
2023/03/09 11:09:32;;;;;;;18.67;0.90;;;;;11.30;94589.00;;;;5051055;28;20353;-66
2023/03/09 11:12:19;;;;;;;0.73;0.73;;;;;11.30;94595.00;;;;5033363;28;20196;-65
2023/03/09 11:14:49;;;;;;;0.77;0.77;;;;;10.60;94601.00;;;;5050799;28;20200;-66
2023/03/09 11:17:36;;;;;;;0.60;0.60;;;;;10.50;94585.00;;;;5050623;28;20679;-66
2023/03/09 11:20:23;;;;;;;1.00;1.00;;;;;10.30;94630.00;;;;5047264;28;20195;-66
2023/03/09 11:22:57;;;;;;;0.80;0.80;;;;;10.50;94595.00;;;;5049385;28;20246;-66
2023/03/09 11:25:48;;;;;;;0.50;0.50;;;;;10.70;94602.00;;;;5051083;28;20210;-66
2023/03/09 11:28:25;;;;;;;3.70;1.27;;;;;10.90;94580.00;;;;5051275;28;20219;-66
2023/03/09 11:30:55;;;;;;;1.07;1.07;;;;;10.90;94584.00;;;;5050624;28;20192;-66
2023/03/09 11:33:22;;;;;;;0.50;0.50;;;;;10.60;94600.00;;;;5049931;28;20566;-67
2023/03/09 11:35:53;;;;;;;0.50;0.50;;;;;10.60;94604.00;;;;5050537;28;20203;-66
2023/03/09 11:38:22;;;;;;;2.93;1.10;;;;;10.60;94603.00;;;;5051154;28;20223;-67
2023/03/09 11:40:59;;;;;;;0.50;0.50;;;;;10.60;94586.00;;;;5050597;28;20250;-66
2023/03/09 11:43:30;;;;;;;0.60;0.60;;;;;10.50;94593.00;;;;5047043;28;20188;-67
2023/03/09 11:46:01;;;;;;;5.40;1.10;;;;;10.70;94595.00;;;;5051190;28;20192;-67
2023/03/09 11:48:32;;;;;;;1.27;1.27;;;;;10.50;94597.00;;;;5051133;28;20212;-67
2023/03/09 11:51:04;;;;;;;1.23;1.17;;;;;10.80;94576.00;;;;5050916;28;20212;-67
2023/03/09 11:53:35;;;;;;;0.60;0.60;;;;;10.90;94590.00;;;;5050842;28;20192;-67
2023/03/09 11:56:16;;;;;;;1.03;1.03;;;;;11.10;94562.00;;;;5050750;28;20203;-67
2023/03/09 11:58:46;;;;;;;0.50;0.50;;;;;11.20;94587.00;;;;5050994;28;20698;-67
2023/03/09 12:01:21;;;;;;;1.23;1.23;;;;;11.30;94600.00;;;;5050964;28;20572;-67
2023/03/09 12:03:55;;;;;;;0.57;0.57;;;;;11.50;94572.00;;;;5033199;28;20244;-67
2023/03/09 12:06:30;;;;;;;0.70;0.70;;;;;11.40;94586.00;;;;5050382;28;20200;-67
2023/03/09 12:08:59;;;;;;;0.50;0.50;;;;;10.60;94588.00;;;;5050883;28;20226;-67
2023/03/09 12:11:32;;;;;;;1.40;1.07;;;;;11.20;94571.00;;;;5050175;28;20204;-66
2023/03/09 12:14:05;;;;;;;1.13;1.13;;;;;11.30;94572.00;;;;5033006;28;20196;-67
2023/03/09 12:16:36;;;;;;;0.60;0.60;;;;;11.20;94594.00;;;;5051107;28;20193;-67
2023/03/09 12:19:12;;;;;;;0.60;0.60;;;;;11.60;94557.00;;;;5049671;28;20224;-67
2023/03/09 12:21:42;;;;;;;0.73;0.73;;;;;11.90;94554.00;;;;5050363;28;20562;-66
2023/03/09 12:24:27;;;;;;;0.50;0.50;;;;;11.50;94571.00;;;;5050952;28;20657;-67
2023/03/09 12:27:03;;;;;;;0.70;0.70;;;;;11.70;94569.00;;;;5048418;28;20216;-67
2023/03/09 12:29:35;;;;;;;0.53;0.53;;;;;11.10;94625.00;;;;5050896;28;20574;-67
2023/03/09 12:32:38;;;;;;;0.60;0.60;;;;;11.00;94600.00;;;;5049469;28;20188;-67